Time;durP1;ratioP1;P1;durP2;ratioP2;P2;SDS_P1;SDS_P2;PMS_P1;PMS_P2;Temp;Humidity;BMP_temperature;BMP_pressure;BME280_temperature;BME280_humidity;BME280_pressure;Samples;Min_cycle;Max_cycle;Signal;HPM_P1;HPM_P2
2021/08/31 00:02:00;;;;;;;;;;;12.30;99.90;;;;;;5089411;28;20436;-69
2021/08/31 00:04:25;;;;;;;;;;;12.30;99.90;;;;;;5089045;28;19908;-68
2021/08/31 00:06:51;;;;;;;;;;;12.30;99.90;;;;;;5088908;28;19955;-68
2021/08/31 00:09:17;;;;;;;;;;;12.30;99.90;;;;;;5088872;28;19912;-68
2021/08/31 00:11:44;;;;;;;;;;;12.20;99.90;;;;;;5070849;28;19908;-68
2021/08/31 00:14:11;;;;;;;;;;;12.20;99.90;;;;;;5088970;28;19968;-68
2021/08/31 00:16:36;;;;;;;;;;;12.20;99.90;;;;;;5070863;28;19951;-68
2021/08/31 00:19:02;;;;;;;;;;;12.20;99.90;;;;;;5088674;28;19951;-68
2021/08/31 00:21:27;;;;;;;;;;;12.20;99.90;;;;;;5088848;28;19907;-67
2021/08/31 00:23:53;;;;;;;;;;;12.20;99.90;;;;;;5088638;28;19958;-69
2021/08/31 00:26:18;;;;;;;;;;;12.20;99.90;;;;;;5088875;28;19935;-69
2021/08/31 00:28:44;;;;;;;;;;;12.20;99.90;;;;;;5088555;28;19947;-68
2021/08/31 00:31:09;;;;;;;;;;;12.20;99.90;;;;;;5088636;28;19908;-68
2021/08/31 00:33:35;;;;;;;;;;;12.10;99.90;;;;;;5070124;28;19908;-68
2021/08/31 00:36:03;;;;;;;;;;;12.10;99.90;;;;;;5070818;28;20010;-68
2021/08/31 00:38:29;;;;;;;;;;;12.10;99.90;;;;;;5088565;28;19904;-68
2021/08/31 00:40:55;;;;;;;;;;;12.10;99.90;;;;;;5088655;28;19904;-68
2021/08/31 00:43:20;;;;;;;;;;;12.10;99.90;;;;;;5088536;28;19907;-68
2021/08/31 00:45:48;;;;;;;;;;;12.00;99.90;;;;;;5088658;28;20265;-69
2021/08/31 00:48:14;;;;;;;;;;;12.10;99.90;;;;;;5088458;28;19916;-68
2021/08/31 00:50:39;;;;;;;;;;;12.00;99.90;;;;;;5088659;28;19912;-68
2021/08/31 00:53:05;;;;;;;;;;;12.00;99.90;;;;;;5088271;28;19915;-68
2021/08/31 00:55:31;;;;;;;;;;;12.00;99.90;;;;;;5070444;28;19912;-69
2021/08/31 00:57:56;;;;;;;;;;;12.00;99.90;;;;;;5088606;28;20376;-69
2021/08/31 01:00:22;;;;;;;;;;;12.10;99.90;;;;;;5088578;28;19908;-68
2021/08/31 01:02:47;;;;;;;;;;;12.10;99.90;;;;;;5088458;28;20386;-69
2021/08/31 01:05:13;;;;;;;;;;;12.10;99.90;;;;;;5088387;28;20369;-69
2021/08/31 01:07:39;;;;;;;;;;;12.00;99.90;;;;;;5088558;28;20285;-68
2021/08/31 01:10:05;;;;;;;;;;;12.10;99.90;;;;;;5088728;28;19908;-68
2021/08/31 01:12:30;;;;;;;;;;;12.10;99.90;;;;;;5091971;28;19912;-69
2021/08/31 01:14:56;;;;;;;;;;;12.10;99.90;;;;;;5091970;28;19908;-69
2021/08/31 01:17:25;;;;;;;;;;;12.10;99.90;;;;;;5091953;28;19915;-68
2021/08/31 01:19:50;;;;;;;;;;;12.00;99.90;;;;;;5091847;28;19908;-69
2021/08/31 01:22:16;;;;;;;;;;;12.00;99.90;;;;;;5091825;28;19908;-68
2021/08/31 01:24:42;;;;;;;;;;;12.00;99.90;;;;;;5091684;28;19916;-69
2021/08/31 01:27:08;;;;;;;;;;;12.00;99.90;;;;;;5073312;28;19923;-69
2021/08/31 01:29:34;;;;;;;;;;;12.00;99.90;;;;;;5091808;28;19912;-68
2021/08/31 01:32:00;;;;;;;;;;;11.90;99.90;;;;;;5091815;28;20007;-68
2021/08/31 01:34:26;;;;;;;;;;;11.90;99.90;;;;;;5073515;28;19904;-68
2021/08/31 01:36:52;;;;;;;;;;;11.90;99.90;;;;;;5091865;28;20279;-68
2021/08/31 01:39:17;;;;;;;;;;;11.80;99.90;;;;;;5073315;28;19915;-68
2021/08/31 01:41:43;;;;;;;;;;;11.80;99.90;;;;;;5091552;28;19908;-68
2021/08/31 01:44:08;;;;;;;;;;;11.80;99.90;;;;;;5091533;28;19914;-68
2021/08/31 01:46:34;;;;;;;;;;;11.80;99.90;;;;;;5091415;28;19911;-69
2021/08/31 01:48:59;;;;;;;;;;;11.80;99.90;;;;;;5073096;28;19920;-68
2021/08/31 01:51:25;;;;;;;;;;;11.70;99.90;;;;;;5091507;28;19946;-69
2021/08/31 01:53:51;;;;;;;;;;;11.70;99.90;;;;;;5091184;28;20006;-68
2021/08/31 01:56:16;;;;;;;;;;;11.70;99.90;;;;;;5091283;28;19908;-69
2021/08/31 01:58:42;;;;;;;;;;;11.70;99.90;;;;;;5073150;28;19999;-69
2021/08/31 02:01:08;;;;;;;;;;;11.70;99.90;;;;;;5091014;28;20452;-68
2021/08/31 02:03:33;;;;;;;;;;;11.70;99.90;;;;;;5090986;28;20261;-68
2021/08/31 02:05:59;;;;;;;;;;;11.70;99.90;;;;;;5073487;28;19907;-68
2021/08/31 02:08:24;;;;;;;;;;;11.70;99.90;;;;;;5090978;28;20319;-68
2021/08/31 02:10:50;;;;;;;;;;;11.70;99.90;;;;;;5090960;28;20403;-68
2021/08/31 02:13:16;;;;;;;;;;;11.70;99.90;;;;;;5091013;28;19908;-69
2021/08/31 02:15:41;;;;;;;;;;;11.70;99.90;;;;;;5090843;28;20006;-69
2021/08/31 02:18:07;;;;;;;;;;;11.70;99.90;;;;;;5090793;28;19908;-68
2021/08/31 02:20:33;;;;;;;;;;;11.60;99.90;;;;;;5090774;28;19943;-68
2021/08/31 02:22:59;;;;;;;;;;;11.60;99.90;;;;;;5071206;28;19914;-69
2021/08/31 02:25:24;;;;;;;;;;;11.50;99.90;;;;;;5072414;28;19919;-68
2021/08/31 02:27:50;;;;;;;;;;;11.60;99.90;;;;;;5090562;28;20384;-68
2021/08/31 02:30:15;;;;;;;;;;;11.50;99.90;;;;;;5090780;28;19908;-68
2021/08/31 02:32:41;;;;;;;;;;;11.50;99.90;;;;;;5090565;28;19911;-68
2021/08/31 02:35:07;;;;;;;;;;;11.50;99.90;;;;;;5072258;28;20747;-69
2021/08/31 02:37:33;;;;;;;;;;;11.50;99.90;;;;;;5090492;28;19915;-68
2021/08/31 02:39:58;;;;;;;;;;;11.50;99.90;;;;;;5090883;28;19908;-68
2021/08/31 02:42:24;;;;;;;;;;;11.50;99.90;;;;;;5072046;28;20392;-68
2021/08/31 02:44:49;;;;;;;;;;;11.50;99.90;;;;;;5090379;28;19908;-69
2021/08/31 02:47:15;;;;;;;;;;;11.50;99.90;;;;;;5089955;28;20287;-68
2021/08/31 02:49:40;;;;;;;;;;;11.40;99.90;;;;;;5090237;28;20342;-68
2021/08/31 02:52:07;;;;;;;;;;;11.40;99.90;;;;;;5090243;28;20497;-68
2021/08/31 02:54:32;;;;;;;;;;;11.40;99.90;;;;;;5090024;28;19951;-68
2021/08/31 02:56:58;;;;;;;;;;;11.40;99.90;;;;;;5090001;28;19947;-69
2021/08/31 02:59:25;;;;;;;;;;;11.30;99.90;;;;;;5090094;28;19904;-68
2021/08/31 03:04:22;;;;;;;;;;;11.30;99.90;;;;;;5090045;28;19908;-68
2021/08/31 03:06:47;;;;;;;;;;;11.30;99.90;;;;;;5089907;28;19911;-68
2021/08/31 03:09:13;;;;;;;;;;;11.20;99.90;;;;;;5089805;28;19904;-68
2021/08/31 03:11:38;;;;;;;;;;;11.20;99.90;;;;;;5089980;28;20265;-68
2021/08/31 03:14:04;;;;;;;;;;;11.20;99.90;;;;;;5089909;28;19904;-68
2021/08/31 03:16:29;;;;;;;;;;;11.30;99.90;;;;;;5089826;28;19957;-68
2021/08/31 03:18:55;;;;;;;;;;;11.30;99.90;;;;;;5089747;28;19915;-68
2021/08/31 03:21:20;;;;;;;;;;;11.40;99.90;;;;;;5089563;28;19990;-69
2021/08/31 03:23:46;;;;;;;;;;;11.40;99.90;;;;;;5089449;28;20441;-68
2021/08/31 03:26:11;;;;;;;;;;;11.40;99.90;;;;;;5089493;28;19916;-67
2021/08/31 03:28:37;;;;;;;;;;;11.40;99.90;;;;;;5089380;28;19916;-69
2021/08/31 03:31:02;;;;;;;;;;;11.50;99.90;;;;;;5089230;28;19931;-68
2021/08/31 03:33:28;;;;;;;;;;;11.40;99.90;;;;;;5088942;28;19996;-68
2021/08/31 03:35:54;;;;;;;;;;;11.40;99.90;;;;;;5089128;28;19904;-67
2021/08/31 03:38:19;;;;;;;;;;;11.40;99.90;;;;;;5089314;28;19908;-69
2021/08/31 03:40:45;;;;;;;;;;;11.30;99.90;;;;;;5089588;28;20364;-68
2021/08/31 03:43:10;;;;;;;;;;;11.30;99.90;;;;;;5089029;28;19908;-68
2021/08/31 03:45:36;;;;;;;;;;;11.30;99.90;;;;;;5089122;28;19911;-68
2021/08/31 03:48:01;;;;;;;;;;;11.30;99.90;;;;;;5089243;28;19920;-68
2021/08/31 03:50:27;;;;;;;;;;;11.20;99.90;;;;;;5089195;28;19996;-68
2021/08/31 03:52:52;;;;;;;;;;;11.20;99.90;;;;;;5089039;28;20330;-68
2021/08/31 03:55:18;;;;;;;;;;;11.20;99.90;;;;;;5089166;28;19957;-68
2021/08/31 03:57:43;;;;;;;;;;;11.20;99.90;;;;;;5071042;28;19994;-66
2021/08/31 04:00:09;;;;;;;;;;;11.10;99.90;;;;;;5070949;28;19995;-69
2021/08/31 04:02:36;;;;;;;;;;;11.10;99.90;;;;;;5088992;28;20410;-68
2021/08/31 04:05:02;;;;;;;;;;;11.10;99.90;;;;;;5088816;28;19994;-69
2021/08/31 04:07:28;;;;;;;;;;;11.10;99.90;;;;;;5088966;28;20004;-68
2021/08/31 04:09:55;;;;;;;;;;;11.20;99.90;;;;;;5088883;28;19907;-69
2021/08/31 04:12:21;;;;;;;;;;;11.20;99.90;;;;;;5088950;28;19908;-68
2021/08/31 04:14:46;;;;;;;;;;;11.20;99.90;;;;;;5089360;28;19915;-68
2021/08/31 04:17:12;;;;;;;;;;;11.20;99.90;;;;;;5088574;28;20380;-68
2021/08/31 04:19:38;;;;;;;;;;;11.20;99.90;;;;;;5070576;28;19930;-68
2021/08/31 04:22:04;;;;;;;;;;;11.20;99.90;;;;;;5088763;28;20391;-68
2021/08/31 04:24:29;;;;;;;;;;;11.20;99.90;;;;;;5070245;28;19916;-69
2021/08/31 04:26:55;;;;;;;;;;;11.20;99.90;;;;;;5088515;28;19904;-68
2021/08/31 04:29:21;;;;;;;;;;;11.20;99.90;;;;;;5088526;28;20699;-68
2021/08/31 04:31:46;;;;;;;;;;;11.30;99.90;;;;;;5088594;28;19965;-68
2021/08/31 04:34:12;;;;;;;;;;;11.30;99.90;;;;;;5088509;28;20424;-68
2021/08/31 04:36:37;;;;;;;;;;;11.40;99.90;;;;;;5088229;28;19909;-68
2021/08/31 04:39:03;;;;;;;;;;;11.50;99.90;;;;;;5088468;28;19954;-68
2021/08/31 04:41:28;;;;;;;;;;;11.50;99.90;;;;;;5088734;28;20398;-67
2021/08/31 04:43:54;;;;;;;;;;;11.60;99.90;;;;;;5088639;28;19908;-68
2021/08/31 04:46:19;;;;;;;;;;;11.70;99.90;;;;;;5091082;28;19904;-68
2021/08/31 04:48:45;;;;;;;;;;;11.90;99.90;;;;;;5092653;28;20265;-68
2021/08/31 04:51:10;;;;;;;;;;;12.10;99.90;;;;;;5092446;28;20603;-67
2021/08/31 04:53:36;;;;;;;;;;;12.30;99.90;;;;;;5092473;28;19954;-68
2021/08/31 04:56:01;;;;;;;;;;;12.60;99.90;;;;;;5092453;28;19951;-67
2021/08/31 04:58:27;;;;;;;;;;;12.80;99.90;;;;;;5092258;28;19915;-67
2021/08/31 05:00:53;;;;;;;;;;;13.00;99.90;;;;;;5092257;28;19904;-68
2021/08/31 05:03:18;;;;;;;;;;;13.10;99.90;;;;;;5092045;28;19937;-68
2021/08/31 05:05:44;;;;;;;;;;;13.10;99.90;;;;;;5073922;28;19952;-68
2021/08/31 05:08:09;;;;;;;;;;;13.20;99.90;;;;;;5073843;28;19916;-69
2021/08/31 05:10:35;;;;;;;;;;;13.40;99.90;;;;;;5092107;28;20284;-69
2021/08/31 05:13:00;;;;;;;;;;;13.70;99.90;;;;;;5091948;28;19961;-67
2021/08/31 05:15:26;;;;;;;;;;;14.20;99.90;;;;;;5091975;28;19908;-68
2021/08/31 05:17:52;;;;;;;;;;;14.60;99.90;;;;;;5091914;28;19947;-68
2021/08/31 05:20:18;;;;;;;;;;;15.00;99.90;;;;;;5092032;28;20261;-68
2021/08/31 05:22:43;;;;;;;;;;;15.50;99.90;;;;;;5073588;28;19908;-69
2021/08/31 05:25:09;;;;;;;;;;;15.80;99.20;;;;;;5091518;28;19926;-69
2021/08/31 05:27:34;;;;;;;;;;;15.80;97.80;;;;;;5091700;28;19923;-69
2021/08/31 05:30:00;;;;;;;;;;;15.80;98.10;;;;;;5092119;28;20008;-69
2021/08/31 05:32:25;;;;;;;;;;;15.70;98.60;;;;;;5091872;28;19953;-68
2021/08/31 05:34:51;;;;;;;;;;;15.80;98.50;;;;;;5091781;28;19981;-68
2021/08/31 05:37:17;;;;;;;;;;;16.00;98.60;;;;;;5091584;28;19993;-69
2021/08/31 05:39:42;;;;;;;;;;;16.30;97.60;;;;;;5073799;28;20003;-69
2021/08/31 05:42:09;;;;;;;;;;;16.70;96.20;;;;;;5091862;28;19908;-70
2021/08/31 05:44:35;;;;;;;;;;;17.30;94.50;;;;;;5091797;28;19914;-68
2021/08/31 05:47:01;;;;;;;;;;;17.70;92.50;;;;;;5091505;28;19908;-69
2021/08/31 05:49:26;;;;;;;;;;;18.30;92.20;;;;;;5091766;28;20037;-69
2021/08/31 05:51:53;;;;;;;;;;;18.70;89.80;;;;;;5091664;28;19998;-69
2021/08/31 05:54:20;;;;;;;;;;;19.10;88.20;;;;;;5091524;28;20391;-69
2021/08/31 05:56:47;;;;;;;;;;;19.60;86.80;;;;;;5091146;28;19953;-69
2021/08/31 05:59:12;;;;;;;;;;;20.10;84.00;;;;;;5091212;28;19904;-67
2021/08/31 06:01:38;;;;;;;;;;;20.40;82.40;;;;;;5091409;28;19970;-67
2021/08/31 06:04:04;;;;;;;;;;;20.80;80.40;;;;;;5091184;28;20714;-68
2021/08/31 06:06:29;;;;;;;;;;;21.20;78.20;;;;;;5091218;28;19904;-67
2021/08/31 06:08:55;;;;;;;;;;;21.50;75.80;;;;;;5091296;28;19962;-67
2021/08/31 06:11:22;;;;;;;;;;;21.60;74.30;;;;;;5091069;28;19908;-67
2021/08/31 06:13:48;;;;;;;;;;;21.90;72.20;;;;;;5091116;28;19900;-67
2021/08/31 06:16:13;;;;;;;;;;;22.10;71.70;;;;;;5091145;28;19912;-66
2021/08/31 06:18:39;;;;;;;;;;;22.50;68.50;;;;;;5091160;28;19916;-68
2021/08/31 06:21:04;;;;;;;;;;;22.90;67.20;;;;;;5072735;28;19938;-67
2021/08/31 06:23:30;;;;;;;;;;;23.40;64.80;;;;;;5090995;28;19904;-67
2021/08/31 06:25:55;;;;;;;;;;;23.70;62.90;;;;;;5090797;28;19990;-68
2021/08/31 06:28:21;;;;;;;;;;;23.70;62.40;;;;;;5072614;28;19962;-67
2021/08/31 06:30:46;;;;;;;;;;;23.70;63.10;;;;;;5090892;28;20029;-67
2021/08/31 06:33:12;;;;;;;;;;;23.80;63.20;;;;;;5090543;28;19904;-67
2021/08/31 06:35:37;;;;;;;;;;;23.80;64.00;;;;;;5090636;28;19915;-67
2021/08/31 06:38:03;;;;;;;;;;;24.20;63.30;;;;;;5090588;28;19904;-66
2021/08/31 06:40:29;;;;;;;;;;;24.20;62.40;;;;;;5090539;28;19908;-68
2021/08/31 06:42:54;;;;;;;;;;;24.50;60.30;;;;;;5090504;28;19947;-68
2021/08/31 06:45:20;;;;;;;;;;;24.90;59.80;;;;;;5090387;28;19908;-67
2021/08/31 06:47:45;;;;;;;;;;;24.30;59.10;;;;;;5072123;28;19916;-67
2021/08/31 06:50:15;;;;;;;;;;;23.80;59.60;;;;;;5090335;28;19912;-67
2021/08/31 06:52:41;;;;;;;;;;;23.30;60.80;;;;;;5090329;28;20372;-68
2021/08/31 06:55:07;;;;;;;;;;;22.90;62.50;;;;;;5090098;28;19910;-67
2021/08/31 06:57:33;;;;;;;;;;;22.70;63.40;;;;;;5090308;28;19908;-67
2021/08/31 06:59:59;;;;;;;;;;;22.40;65.00;;;;;;5090321;28;19985;-68
2021/08/31 07:02:25;;;;;;;;;;;22.00;66.50;;;;;;5090166;28;20326;-69
2021/08/31 07:04:52;;;;;;;;;;;21.70;68.20;;;;;;5090103;28;19970;-68
2021/08/31 07:07:18;;;;;;;;;;;21.50;69.10;;;;;;5089951;28;19963;-69
2021/08/31 07:09:43;;;;;;;;;;;21.40;69.40;;;;;;5089284;28;19954;-69
2021/08/31 07:12:11;;;;;;;;;;;21.30;69.70;;;;;;5089948;28;20677;-68
2021/08/31 07:14:37;;;;;;;;;;;21.30;70.20;;;;;;5071607;28;20304;-68
2021/08/31 07:17:03;;;;;;;;;;;21.30;70.40;;;;;;5089581;28;19904;-69
2021/08/31 07:19:28;;;;;;;;;;;21.30;71.50;;;;;;5089861;28;19904;-69
2021/08/31 07:21:54;;;;;;;;;;;21.30;71.00;;;;;;5089627;28;19940;-68
2021/08/31 07:24:19;;;;;;;;;;;21.30;70.80;;;;;;5089302;28;20344;-69
2021/08/31 07:26:45;;;;;;;;;;;21.40;70.70;;;;;;5089754;28;19912;-68
2021/08/31 07:29:10;;;;;;;;;;;21.50;70.60;;;;;;5089238;28;20376;-69
2021/08/31 07:31:36;;;;;;;;;;;21.40;71.20;;;;;;5089726;28;20007;-69
2021/08/31 07:34:01;;;;;;;;;;;21.40;71.90;;;;;;5089585;28;19915;-68
2021/08/31 07:36:27;;;;;;;;;;;21.60;71.90;;;;;;5089485;28;19951;-69
2021/08/31 07:38:55;;;;;;;;;;;21.80;71.80;;;;;;5089292;28;20296;-68
2021/08/31 07:41:20;;;;;;;;;;;21.90;70.40;;;;;;5089397;28;20711;-69
2021/08/31 07:43:46;;;;;;;;;;;21.80;71.20;;;;;;5089429;28;20396;-68
2021/08/31 07:46:12;;;;;;;;;;;21.80;72.30;;;;;;5071124;28;19912;-68
2021/08/31 07:48:38;;;;;;;;;;;21.60;72.20;;;;;;5089344;28;19923;-68
2021/08/31 07:51:03;;;;;;;;;;;21.50;72.60;;;;;;5089182;28;20338;-68
2021/08/31 07:53:29;;;;;;;;;;;21.50;73.60;;;;;;5089243;28;19998;-69
2021/08/31 07:55:54;;;;;;;;;;;22.40;71.80;;;;;;5089295;28;19966;-69
2021/08/31 07:58:20;;;;;;;;;;;23.40;67.70;;;;;;5089243;28;19916;-69
2021/08/31 08:00:45;;;;;;;;;;;23.60;66.50;;;;;;5089076;28;19960;-69
2021/08/31 08:03:11;;;;;;;;;;;23.50;66.30;;;;;;5088938;28;19912;-68
2021/08/31 08:05:36;;;;;;;;;;;23.30;66.90;;;;;;5089059;28;20027;-69
2021/08/31 08:08:02;;;;;;;;;;;22.90;67.70;;;;;;5089028;28;19919;-68
2021/08/31 08:10:27;;;;;;;;;;;22.70;68.80;;;;;;5089115;28;19912;-69
2021/08/31 08:12:53;;;;;;;;;;;22.60;69.40;;;;;;5088831;28;20295;-69
2021/08/31 08:15:21;;;;;;;;;;;22.80;69.70;;;;;;5088878;28;20715;-69
2021/08/31 08:17:48;;;;;;;;;;;23.70;67.90;;;;;;5088952;28;20395;-69
2021/08/31 08:20:14;;;;;;;;;;;24.80;63.80;;;;;;5091106;28;19908;-70
2021/08/31 08:22:39;;;;;;;;;;;25.60;61.80;;;;;;5092905;28;19911;-69
2021/08/31 08:25:05;;;;;;;;;;;26.40;59.30;;;;;;5092787;28;19915;-67
2021/08/31 08:27:31;;;;;;;;;;;27.30;57.70;;;;;;5092895;28;19907;-68
2021/08/31 08:29:57;;;;;;;;;;;27.60;56.00;;;;;;5092970;28;19915;-67
2021/08/31 08:32:22;;;;;;;;;;;27.30;54.70;;;;;;5092882;28;19908;-68
2021/08/31 08:34:48;;;;;;;;;;;26.60;55.70;;;;;;5092872;28;20394;-69
2021/08/31 08:37:13;;;;;;;;;;;25.80;57.00;;;;;;5092768;28;20388;-69
2021/08/31 08:39:39;;;;;;;;;;;25.10;58.80;;;;;;5092734;28;19973;-68
2021/08/31 08:42:05;;;;;;;;;;;24.60;60.10;;;;;;5092191;28;19908;-69
2021/08/31 08:44:31;;;;;;;;;;;24.00;62.10;;;;;;5073758;28;20565;-68
2021/08/31 08:46:56;;;;;;;;;;;23.60;63.50;;;;;;5091739;28;20007;-68
2021/08/31 08:49:22;;;;;;;;;;;23.30;65.20;;;;;;5073588;28;19950;-68
2021/08/31 08:51:48;;;;;;;;;;;23.00;66.30;;;;;;5091835;28;19911;-67
2021/08/31 08:54:13;;;;;;;;;;;22.80;66.90;;;;;;5074418;28;19913;-68
2021/08/31 08:56:39;;;;;;;;;;;22.70;68.10;;;;;;5092592;28;19910;-69
2021/08/31 08:59:04;;;;;;;;;;;23.00;68.80;;;;;;5092276;28;19908;-68
2021/08/31 09:01:50;;;;;;;;;;;23.50;66.50;;;;;;5092552;28;20077;-68
2021/08/31 09:04:17;;;;;;;;;;;23.70;66.60;;;;;;5091793;28;19973;-69
2021/08/31 09:06:46;;;;;;;;;;;23.90;65.90;;;;;;5092060;28;19914;-68
2021/08/31 09:09:12;;;;;;;;;;;24.20;65.00;;;;;;5073503;28;19962;-69
2021/08/31 09:11:45;;;;;;;;;;;24.40;63.60;;;;;;5091980;28;19957;-69
2021/08/31 09:14:16;;;;;;;;;;;24.30;63.10;;;;;;5091944;28;19938;-68
2021/08/31 09:16:42;;;;;;;;;;;24.40;63.30;;;;;;5091879;28;20003;-68
2021/08/31 09:19:07;;;;;;;;;;;24.70;63.10;;;;;;5091608;28;19958;-69
2021/08/31 09:21:33;;;;;;;;;;;24.70;62.10;;;;;;5092017;28;19911;-69
2021/08/31 09:23:59;;;;;;;;;;;24.90;61.80;;;;;;5091678;28;20330;-70
2021/08/31 09:26:33;;;;;;;;;;;24.90;61.30;;;;;;5073637;28;19912;-69
2021/08/31 09:29:17;;;;;;;;;;;24.80;61.00;;;;;;5090824;28;19955;-70
2021/08/31 09:31:44;;;;;;;;;;;24.60;61.40;;;;;;5090244;28;20399;-69
2021/08/31 09:34:29;;;;;;;;;;;24.20;63.00;;;;;;5073028;28;19908;-70
2021/08/31 09:36:55;;;;;;;;;;;24.30;63.00;;;;;;5090520;28;19904;-69
2021/08/31 09:39:27;;;;;;;;;;;24.30;62.90;;;;;;5090784;28;19914;-69
2021/08/31 09:41:53;;;;;;;;;;;24.20;63.20;;;;;;5073261;28;19908;-69
2021/08/31 09:44:19;;;;;;;;;;;24.30;63.50;;;;;;5091474;28;20372;-68
2021/08/31 09:46:54;;;;;;;;;;;24.10;62.60;;;;;;5091416;28;19908;-69
2021/08/31 09:49:27;;;;;;;;;;;23.70;63.30;;;;;;5096436;28;19915;-70
2021/08/31 09:51:59;;;;;;;;;;;23.40;64.40;;;;;;5108829;28;20387;-69
2021/08/31 09:54:25;;;;;;;;;;;23.00;65.20;;;;;;5088376;28;19955;-69
2021/08/31 09:56:51;;;;;;;;;;;22.90;66.10;;;;;;5088399;28;19948;-69
2021/08/31 09:59:18;;;;;;;;;;;22.80;67.10;;;;;;5088228;28;19915;-69
2021/08/31 10:01:43;;;;;;;;;;;22.40;66.80;;;;;;5088681;28;20318;-68
2021/08/31 10:04:09;;;;;;;;;;;22.30;68.00;;;;;;5110909;28;19903;-69
2021/08/31 10:06:34;;;;;;;;;;;22.20;69.20;;;;;;5111492;28;19904;-69
2021/08/31 10:09:00;;;;;;;;;;;22.20;68.40;;;;;;5111207;28;19930;-69
2021/08/31 10:11:27;;;;;;;;;;;22.40;68.50;;;;;;5111483;28;19950;-69
2021/08/31 10:13:53;;;;;;;;;;;22.70;67.80;;;;;;5111350;28;19956;-69
2021/08/31 10:16:20;;;;;;;;;;;23.20;66.20;;;;;;5111473;28;19916;-68
2021/08/31 10:18:45;;;;;;;;;;;23.40;64.80;;;;;;5111381;28;19908;-69
2021/08/31 10:21:13;;;;;;;;;;;23.60;64.30;;;;;;5110722;28;19918;-69
2021/08/31 10:23:41;;;;;;;;;;;23.80;63.50;;;;;;5111157;28;19994;-70
2021/08/31 10:26:22;;;;;;;;;;;23.70;62.50;;;;;;5111008;28;19927;-69
2021/08/31 10:28:49;;;;;;;;;;;23.40;62.50;;;;;;5110909;28;19912;-69
2021/08/31 10:31:27;;;;;;;;;;;23.10;63.80;;;;;;5110863;28;20022;-70
2021/08/31 10:33:53;;;;;;;;;;;22.80;65.20;;;;;;5110884;28;19907;-69
2021/08/31 10:36:33;;;;;;;;;;;22.90;66.30;;;;;;5110922;28;19950;-69
2021/08/31 10:38:59;;;;;;;;;;;23.00;65.60;;;;;;5110537;28;19915;-68
2021/08/31 10:41:42;;;;;;;;;;;23.00;65.10;;;;;;5092566;28;19904;-69
2021/08/31 10:44:07;;;;;;;;;;;22.80;65.20;;;;;;5109784;28;19908;-69
2021/08/31 10:46:51;;;;;;;;;;;22.70;65.80;;;;;;5110598;28;19956;-69
2021/08/31 10:49:17;;;;;;;;;;;22.80;65.10;;;;;;5110488;28;19915;-69
2021/08/31 10:52:03;;;;;;;;;;;22.90;64.70;;;;;;5110682;28;20002;-70
2021/08/31 10:54:44;;;;;;;;;;;23.00;64.50;;;;;;5110582;28;19907;-69
2021/08/31 10:57:28;;;;;;;;;;;23.00;63.40;;;;;;5110381;28;19908;-70
2021/08/31 10:59:54;;;;;;;;;;;22.80;64.40;;;;;;5110425;28;19903;-69
2021/08/31 11:02:39;;;;;;;;;;;22.80;65.20;;;;;;5110498;28;19986;-68
2021/08/31 11:05:20;;;;;;;;;;;22.90;65.20;;;;;;5109970;28;19919;-69
2021/08/31 11:07:46;;;;;;;;;;;23.10;65.80;;;;;;5110297;28;19919;-70
2021/08/31 11:10:19;;;;;;;;;;;23.40;65.90;;;;;;5110313;28;20380;-69
2021/08/31 11:12:45;;;;;;;;;;;23.50;63.50;;;;;;5110137;28;19908;-70
2021/08/31 11:15:18;;;;;;;;;;;23.60;63.10;;;;;;5110045;28;20095;-69
2021/08/31 11:17:43;;;;;;;;;;;23.70;63.30;;;;;;5109901;28;19986;-69
2021/08/31 11:20:26;;;;;;;;;;;23.70;62.10;;;;;;5110141;28;20017;-69
2021/08/31 11:22:54;;;;;;;;;;;23.70;62.00;;;;;;5109855;28;19904;-69
2021/08/31 11:25:29;;;;;;;;;;;23.70;61.80;;;;;;5109800;28;20311;-69
2021/08/31 11:27:57;;;;;;;;;;;23.80;61.80;;;;;;5109622;28;19907;-69
2021/08/31 11:30:23;;;;;;;;;;;23.90;62.00;;;;;;5091556;28;19908;-69
2021/08/31 11:32:48;;;;;;;;;;;24.00;61.80;;;;;;5109782;28;19903;-69
2021/08/31 11:35:14;;;;;;;;;;;24.10;62.00;;;;;;5091240;28;19911;-69
2021/08/31 11:37:46;;;;;;;;;;;24.10;61.00;;;;;;5109753;28;19904;-69
2021/08/31 11:40:12;;;;;;;;;;;24.20;61.40;;;;;;5109706;28;19912;-69
2021/08/31 11:42:50;;;;;;;;;;;24.20;60.40;;;;;;5108546;28;20311;-68
2021/08/31 11:45:16;;;;;;;;;;;24.10;58.70;;;;;;5108673;28;19925;-68
2021/08/31 11:47:42;;;;;;;;;;;23.90;60.00;;;;;;5094697;28;19959;-68
2021/08/31 11:50:07;;;;;;;;;;;23.70;60.40;;;;;;5108772;28;19970;-68
2021/08/31 11:52:33;;;;;;;;;;;23.60;61.10;;;;;;5108586;28;19961;-68
2021/08/31 11:54:58;;;;;;;;;;;23.50;61.50;;;;;;5108307;28;19970;-69
2021/08/31 11:57:31;;;;;;;;;;;23.50;61.60;;;;;;5108688;28;20014;-68
2021/08/31 11:59:56;;;;;;;;;;;23.10;62.60;;;;;;5108675;28;19951;-68
2021/08/31 12:02:23;;;;;;;;;;;22.80;62.90;;;;;;5108528;28;19951;-68
2021/08/31 12:04:58;;;;;;;;;;;22.50;64.80;;;;;;5108546;28;19942;-68
2021/08/31 12:07:23;;;;;;;;;;;22.10;68.70;;;;;;5108135;28;19912;-68
2021/08/31 12:09:50;;;;;;;;;;;21.90;72.30;;;;;;5107715;28;19926;-69
2021/08/31 12:12:16;;;;;;;;;;;21.60;74.90;;;;;;5107220;28;19959;-68
2021/08/31 12:14:44;;;;;;;;;;;21.20;77.70;;;;;;5106365;28;19958;-67
2021/08/31 12:17:10;;;;;;;;;;;20.80;80.50;;;;;;5107383;28;19916;-66
2021/08/31 12:19:36;;;;;;;;;;;20.60;81.70;;;;;;5089761;28;19916;-68
2021/08/31 12:22:09;;;;;;;;;;;20.50;82.70;;;;;;5087108;28;20520;-68
2021/08/31 12:24:35;;;;;;;;;;;20.30;83.00;;;;;;5107115;28;19916;-68
2021/08/31 12:27:14;;;;;;;;;;;20.30;81.20;;;;;;5095602;28;19973;-67
2021/08/31 12:29:48;;;;;;;;;;;20.30;82.40;;;;;;5086166;28;19923;-69
2021/08/31 12:32:14;;;;;;;;;;;20.30;84.50;;;;;;5084940;28;19908;-69
2021/08/31 12:34:40;;;;;;;;;;;20.40;84.80;;;;;;5085353;28;19908;-68
2021/08/31 12:37:24;;;;;;;;;;;20.40;85.10;;;;;;5103471;28;19908;-70
2021/08/31 12:40:08;;;;;;;;;;;20.40;86.00;;;;;;5088909;28;19951;-68
2021/08/31 12:42:34;;;;;;;;;;;20.40;87.20;;;;;;5090999;28;19908;-69
2021/08/31 12:44:59;;;;;;;;;;;20.30;88.20;;;;;;5104934;28;19907;-68
2021/08/31 12:47:25;;;;;;;;;;;20.10;90.10;;;;;;5094148;28;19912;-68
2021/08/31 12:49:50;;;;;;;;;;;19.90;91.50;;;;;;5103962;28;20362;-67
2021/08/31 12:52:16;;;;;;;;;;;19.80;92.70;;;;;;5108716;28;20705;-67
2021/08/31 12:54:42;;;;;;;;;;;19.60;93.70;;;;;;5108812;28;19907;-68
2021/08/31 12:57:08;;;;;;;;;;;19.30;95.00;;;;;;5108728;28;19914;-69
2021/08/31 12:59:42;;;;;;;;;;;19.20;97.10;;;;;;5090562;28;19907;-68
2021/08/31 13:02:09;;;;;;;;;;;19.00;98.60;;;;;;5108751;28;20375;-69
2021/08/31 13:04:35;;;;;;;;;;;18.90;99.90;;;;;;5108914;28;20513;-68
2021/08/31 13:07:05;;;;;;;;;;;18.90;99.90;;;;;;5092348;28;19908;-68
2021/08/31 13:09:30;;;;;;;;;;;19.00;99.90;;;;;;5112748;28;19918;-69
2021/08/31 13:11:56;;;;;;;;;;;19.10;99.90;;;;;;5112626;28;19903;-69
2021/08/31 13:14:23;;;;;;;;;;;19.30;99.90;;;;;;5112483;28;19919;-69
2021/08/31 13:16:49;;;;;;;;;;;19.60;99.90;;;;;;5112593;28;19908;-68
2021/08/31 13:19:15;;;;;;;;;;;19.80;99.90;;;;;;5112229;28;19911;-70
2021/08/31 13:21:41;;;;;;;;;;;19.90;99.20;;;;;;5112483;28;19914;-69
2021/08/31 13:24:07;;;;;;;;;;;20.00;99.00;;;;;;5112377;28;20380;-69
2021/08/31 13:26:33;;;;;;;;;;;20.00;98.50;;;;;;5112258;28;19920;-69
2021/08/31 13:28:59;;;;;;;;;;;20.10;98.60;;;;;;5093738;28;20354;-69
2021/08/31 13:31:25;;;;;;;;;;;20.00;98.60;;;;;;5111814;28;19904;-68
2021/08/31 13:33:51;;;;;;;;;;;20.00;97.90;;;;;;5112035;28;20396;-69
2021/08/31 13:36:17;;;;;;;;;;;19.90;98.40;;;;;;5112206;28;20352;-69
2021/08/31 13:38:42;;;;;;;;;;;19.90;99.00;;;;;;5112100;28;20302;-70
2021/08/31 13:41:08;;;;;;;;;;;19.90;98.20;;;;;;5111831;28;19907;-69
2021/08/31 13:43:34;;;;;;;;;;;19.90;98.40;;;;;;5111811;28;19914;-69
2021/08/31 13:45:59;;;;;;;;;;;19.90;98.30;;;;;;5111484;28;19915;-68
2021/08/31 13:48:25;;;;;;;;;;;19.70;98.00;;;;;;5111891;28;20376;-68
2021/08/31 13:50:52;;;;;;;;;;;19.70;98.30;;;;;;5111753;28;20367;-68
2021/08/31 13:53:17;;;;;;;;;;;19.60;98.80;;;;;;5111529;28;19915;-69
2021/08/31 13:55:43;;;;;;;;;;;19.70;98.80;;;;;;5111606;28;19928;-69
2021/08/31 13:58:12;;;;;;;;;;;19.60;98.30;;;;;;5111561;28;20367;-68
2021/08/31 14:00:38;;;;;;;;;;;19.60;98.60;;;;;;5111551;28;19904;-68
2021/08/31 14:03:03;;;;;;;;;;;19.60;98.60;;;;;;5111365;28;19912;-68
2021/08/31 14:05:29;;;;;;;;;;;19.50;98.90;;;;;;5111389;28;19907;-69
2021/08/31 14:07:57;;;;;;;;;;;19.40;99.00;;;;;;5111364;28;19912;-68
2021/08/31 14:10:22;;;;;;;;;;;19.40;99.10;;;;;;5092672;28;19914;-68
2021/08/31 14:12:48;;;;;;;;;;;19.40;99.10;;;;;;5111488;28;19907;-68
2021/08/31 14:15:13;;;;;;;;;;;19.30;99.20;;;;;;5111044;28;19911;-68
2021/08/31 14:17:39;;;;;;;;;;;19.40;99.30;;;;;;5111215;28;19908;-68